createdAt,value
2022-12-09T00:01:22.028Z,23.33
2022-12-09T00:06:27.559Z,24.97
2022-12-09T00:11:31.162Z,24.13
2022-12-09T00:16:34.203Z,23.07
2022-12-09T00:21:37.234Z,25.77
2022-12-09T00:26:40.892Z,23.93
2022-12-09T00:31:43.872Z,23.53
2022-12-09T00:36:46.978Z,21.93
2022-12-09T00:41:51.636Z,22.20
2022-12-09T00:46:55.475Z,21.53
2022-12-09T00:51:59.321Z,21.30
2022-12-09T00:57:03.425Z,20.67
2022-12-09T01:02:06.458Z,18.70
2022-12-09T01:07:11.007Z,20.10
2022-12-09T01:12:13.917Z,19.63
2022-12-09T01:17:17.290Z,17.17
2022-12-09T01:22:20.395Z,17.27
2022-12-09T01:27:23.244Z,16.83
2022-12-09T01:32:26.159Z,16.10
2022-12-09T01:37:29.302Z,17.73
2022-12-09T01:42:33.741Z,16.43
2022-12-09T01:47:37.745Z,15.40
2022-12-09T01:52:41.099Z,16.70
2022-12-09T01:57:45.621Z,15.47
2022-12-09T02:02:49.707Z,16.47
2022-12-09T02:07:55.268Z,16.10
2022-12-09T02:13:41.962Z,17.33
2022-12-09T02:18:54.537Z,16.83
2022-12-09T02:24:02.407Z,17.73
2022-12-09T02:29:14.823Z,17.00
2022-12-09T02:34:23.312Z,16.83
2022-12-09T02:39:44.038Z,15.37
2022-12-09T02:44:50.741Z,16.27
2022-12-09T02:50:00.166Z,14.10
2022-12-09T02:55:07.297Z,14.27
2022-12-09T03:00:14.895Z,13.10
2022-12-09T03:05:34.367Z,13.33
2022-12-09T03:10:44.073Z,12.70
2022-12-09T03:15:50.708Z,13.30
2022-12-09T03:20:54.936Z,14.47
2022-12-09T03:25:59.120Z,13.53
2022-12-09T03:31:05.593Z,13.57
2022-12-09T03:36:11.360Z,14.07
2022-12-09T03:41:21.865Z,14.37
2022-12-09T03:46:25.242Z,13.17
2022-12-09T03:51:36.367Z,13.87
2022-12-09T03:56:42.783Z,13.27
2022-12-09T04:01:47.784Z,13.83
2022-12-09T04:06:52.970Z,13.07
2022-12-09T04:11:56.145Z,14.93
2022-12-09T04:16:59.482Z,14.40
2022-12-09T04:22:02.517Z,14.53
2022-12-09T04:27:05.765Z,13.70
2022-12-09T04:32:09.411Z,15.73
2022-12-09T04:37:13.316Z,15.33
2022-12-09T04:42:16.392Z,14.83
2022-12-09T04:47:19.657Z,13.67
2022-12-09T04:52:22.966Z,14.57
2022-12-09T04:57:25.718Z,15.23
2022-12-09T05:02:30.066Z,14.33
2022-12-09T05:07:33.601Z,14.73
2022-12-09T05:12:37.152Z,14.83
2022-12-09T05:17:40.698Z,14.13
2022-12-09T05:22:44.072Z,14.70
2022-12-09T05:27:47.186Z,13.73
2022-12-09T05:32:50.295Z,15.20
2022-12-09T05:37:55.437Z,19.57
2022-12-09T05:42:59.014Z,19.70
2022-12-09T05:48:02.193Z,17.50
2022-12-09T05:53:05.702Z,16.90
2022-12-09T05:58:09.207Z,14.70
2022-12-09T06:03:13.561Z,14.80
2022-12-09T06:08:16.733Z,14.47
2022-12-09T06:13:19.992Z,14.63
2022-12-09T06:18:23.747Z,14.70
2022-12-09T06:23:27.178Z,20.13
2022-12-09T06:28:30.175Z,16.37
2022-12-09T06:38:57.552Z,19.20
2022-12-09T06:44:01.397Z,104.63
2022-12-09T06:49:05.479Z,81.23
2022-12-09T06:54:10.345Z,46.67
2022-12-09T06:59:13.693Z,21.43
2022-12-09T07:04:17.079Z,20.67
2022-12-09T07:09:22.040Z,19.70
2022-12-09T07:14:25.787Z,18.27
2022-12-09T07:19:30.001Z,18.37
2022-12-09T07:24:33.443Z,18.10
2022-12-09T07:29:37.226Z,19.33
2022-12-09T07:34:40.723Z,18.23
2022-12-09T07:39:43.705Z,18.70
2022-12-09T07:44:49.728Z,19.80
2022-12-09T07:49:52.906Z,17.73
2022-12-09T07:54:59.503Z,18.00
2022-12-09T08:00:02.918Z,18.40
2022-12-09T08:05:14.959Z,17.57
2022-12-09T08:10:18.782Z,22.83
2022-12-09T08:15:22.198Z,19.10
2022-12-09T08:20:29.335Z,21.30
2022-12-09T08:25:33.151Z,18.40
2022-12-09T08:30:37.057Z,18.53
2022-12-09T08:35:41.137Z,16.37
2022-12-09T08:40:44.517Z,17.57
2022-12-09T08:45:48.519Z,14.90
2022-12-09T08:50:51.751Z,18.70
2022-12-09T08:55:55.179Z,19.27
2022-12-09T09:00:58.781Z,19.87
2022-12-09T09:06:10.444Z,19.67
2022-12-09T09:11:19.748Z,19.10
2022-12-09T09:16:25.504Z,17.17
2022-12-09T09:21:29.200Z,16.07
2022-12-09T09:26:32.982Z,20.93
2022-12-09T09:31:36.569Z,15.40
2022-12-09T09:36:40.410Z,15.13
2022-12-09T09:41:52.651Z,14.67
2022-12-09T09:46:57.385Z,15.20
2022-12-09T09:52:12.098Z,14.53
2022-12-09T09:57:34.638Z,14.93
2022-12-09T10:03:10.670Z,16.23
2022-12-09T10:08:47.759Z,17.07
2022-12-09T10:14:17.764Z,16.70
2022-12-09T10:19:44.434Z,15.00
2022-12-09T10:24:54.315Z,15.73
2022-12-09T10:30:07.689Z,14.67
2022-12-09T10:35:26.796Z,15.80
2022-12-09T10:46:17.173Z,17.40
2022-12-09T10:51:30.169Z,17.90
2022-12-09T10:56:36.728Z,23.20
2022-12-09T11:02:19.535Z,20.20
2022-12-09T11:07:25.202Z,16.70
2022-12-09T11:12:32.043Z,16.90
2022-12-09T11:17:43.912Z,15.37
2022-12-09T11:23:00.882Z,16.00
2022-12-09T11:28:16.524Z,15.00
2022-12-09T11:33:50.180Z,15.13
2022-12-09T11:39:06.921Z,14.47
2022-12-09T11:44:21.888Z,14.23
2022-12-09T11:49:25.147Z,14.53
2022-12-09T11:54:49.231Z,12.87
2022-12-09T11:59:56.964Z,14.10
2022-12-09T12:05:07.088Z,12.50
2022-12-09T12:10:18.539Z,14.47
2022-12-09T12:15:38.512Z,16.23
2022-12-09T12:21:08.734Z,13.47
2022-12-09T12:26:17.032Z,17.70
2022-12-09T12:31:35.232Z,21.27
2022-12-09T12:36:55.166Z,19.53
2022-12-09T12:42:13.339Z,23.20
2022-12-09T12:47:37.572Z,20.63
2022-12-09T12:52:55.999Z,17.17
2022-12-09T12:58:13.655Z,18.00
2022-12-09T13:03:16.581Z,16.97
2022-12-09T13:08:40.929Z,16.10
2022-12-09T13:14:08.102Z,33.00
2022-12-09T13:19:22.225Z,20.60
2022-12-09T13:24:47.048Z,20.77
2022-12-09T13:29:58.245Z,18.70
2022-12-09T13:35:14.489Z,16.57
2022-12-09T13:40:20.503Z,17.47
2022-12-09T13:45:36.002Z,22.80
2022-12-09T13:50:44.260Z,26.90
2022-12-09T14:01:16.845Z,22.50
2022-12-09T14:06:44.563Z,17.90
2022-12-09T14:11:54.203Z,21.43
2022-12-09T14:16:59.078Z,34.33
2022-12-09T14:22:18.251Z,24.67
2022-12-09T14:27:25.482Z,29.93
2022-12-09T14:32:51.108Z,25.17
2022-12-09T14:38:12.978Z,24.97
2022-12-09T14:43:37.689Z,19.63
2022-12-09T14:48:41.294Z,21.60
2022-12-09T14:53:48.935Z,19.57
2022-12-09T14:58:56.346Z,22.40
2022-12-09T15:04:00.224Z,19.13
2022-12-09T15:09:03.362Z,22.33
2022-12-09T15:14:26.851Z,21.50
2022-12-09T15:19:59.040Z,20.07
2022-12-09T15:24:53.668Z,20.63
2022-12-09T15:29:56.786Z,22.67
2022-12-09T15:35:20.694Z,27.00
2022-12-09T15:40:29.551Z,38.67
2022-12-09T15:45:36.485Z,27.53
2022-12-09T15:50:43.121Z,22.90
2022-12-09T15:55:52.184Z,23.50
2022-12-09T16:00:55.642Z,28.37
2022-12-09T16:06:01.763Z,29.23
2022-12-09T16:11:05.214Z,35.83
2022-12-09T16:16:34.352Z,28.33
2022-12-09T16:21:37.509Z,44.77
2022-12-09T16:26:45.342Z,33.70
2022-12-09T16:32:27.019Z,32.40
2022-12-09T16:37:30.798Z,37.77
2022-12-09T16:42:39.321Z,35.37
2022-12-09T16:47:45.548Z,24.90
2022-12-09T16:52:48.724Z,28.93
2022-12-09T16:57:51.886Z,88.37
2022-12-09T17:03:07.967Z,35.57
2022-12-09T17:08:10.955Z,29.67
2022-12-09T17:13:14.350Z,43.27
2022-12-09T17:18:17.867Z,35.27
2022-12-09T17:23:20.975Z,61.03
2022-12-09T17:28:29.722Z,44.63
2022-12-09T17:33:34.346Z,29.93
2022-12-09T17:38:37.656Z,31.37
2022-12-09T17:43:40.936Z,30.10
2022-12-09T17:48:43.937Z,34.37
2022-12-09T17:53:47.816Z,30.03
2022-12-09T17:59:02.297Z,37.97
2022-12-09T18:04:10.440Z,28.03
2022-12-09T18:09:16.258Z,28.83
2022-12-09T18:14:19.723Z,31.20
2022-12-09T18:19:25.097Z,26.77
2022-12-09T18:24:29.848Z,22.40
2022-12-09T18:29:32.847Z,20.23
2022-12-09T18:34:35.926Z,17.13
2022-12-09T18:39:38.964Z,20.10
2022-12-09T18:44:42.016Z,33.50
2022-12-09T18:49:45.068Z,26.00
2022-12-09T18:54:48.202Z,30.63
2022-12-09T18:59:52.878Z,28.93
2022-12-09T19:04:56.069Z,30.43
2022-12-09T19:09:58.903Z,34.10
2022-12-09T19:15:01.739Z,27.23
2022-12-09T19:20:05.189Z,27.27
2022-12-09T19:25:08.976Z,27.47
2022-12-09T19:30:12.520Z,25.33
2022-12-09T19:35:15.741Z,25.10
2022-12-09T19:40:19.470Z,22.93
2022-12-09T19:45:22.476Z,24.03
2022-12-09T19:50:28.112Z,25.23
2022-12-09T19:55:31.126Z,27.33
2022-12-09T20:00:39.719Z,23.10
2022-12-09T20:05:55.989Z,21.20
2022-12-09T20:10:59.653Z,21.80
2022-12-09T20:16:07.295Z,23.30
2022-12-09T20:21:12.066Z,22.37
2022-12-09T20:26:20.666Z,22.83
2022-12-09T20:31:31.101Z,24.57
2022-12-09T20:36:35.990Z,23.93
2022-12-09T20:41:39.122Z,25.40
2022-12-09T20:46:46.193Z,27.77
2022-12-09T20:51:49.441Z,32.57
2022-12-09T20:56:53.401Z,27.37
2022-12-09T21:01:56.314Z,57.23
2022-12-09T21:06:59.387Z,45.07
2022-12-09T21:12:02.458Z,39.23
2022-12-09T21:17:05.614Z,31.73
2022-12-09T21:22:08.937Z,30.07
2022-12-09T21:27:11.901Z,34.33
2022-12-09T21:32:15.056Z,34.57
2022-12-09T21:37:18.460Z,33.37
2022-12-09T21:42:22.322Z,43.70
2022-12-09T21:47:25.388Z,60.67
2022-12-09T21:52:28.958Z,40.77
2022-12-09T21:57:34.320Z,34.33
2022-12-09T22:02:37.401Z,33.63
2022-12-09T22:07:40.389Z,30.33
2022-12-09T22:12:44.070Z,24.03
2022-12-09T22:17:47.827Z,22.80
2022-12-09T22:22:51.197Z,20.80
2022-12-09T22:27:54.105Z,19.77
2022-12-09T22:32:57.222Z,19.80
2022-12-09T22:38:00.079Z,20.57
2022-12-09T22:43:02.958Z,19.23
2022-12-09T22:48:06.258Z,19.00
2022-12-09T22:53:09.298Z,19.20
2022-12-09T22:58:12.193Z,59.50
2022-12-09T23:03:16.431Z,39.40
2022-12-09T23:08:20.361Z,22.27
2022-12-09T23:13:24.085Z,23.83
2022-12-09T23:18:27.964Z,19.57
2022-12-09T23:23:31.590Z,17.30
2022-12-09T23:28:38.725Z,17.03
2022-12-09T23:33:44.348Z,16.60
2022-12-09T23:38:49.171Z,19.93
2022-12-09T23:43:53.417Z,16.97
2022-12-09T23:48:57.072Z,17.17
2022-12-09T23:54:02.423Z,15.37
2022-12-09T23:59:07.983Z,16.40
